createdAt,value
2023-10-17T00:01:42.420Z,100.00
2023-10-17T00:05:10.206Z,100.00
2023-10-17T00:08:38.003Z,100.00
2023-10-17T00:11:41.642Z,100.00
2023-10-17T00:14:50.777Z,100.00
2023-10-17T00:17:59.618Z,100.00
2023-10-17T00:21:27.253Z,100.00
2023-10-17T00:24:54.940Z,100.00
2023-10-17T00:28:23.110Z,100.00
2023-10-17T00:31:50.896Z,100.00
2023-10-17T00:35:00.591Z,100.00
2023-10-17T00:38:28.397Z,100.00
2023-10-17T00:41:56.359Z,100.00
2023-10-17T00:45:05.990Z,100.00
2023-10-17T00:48:15.893Z,100.00
2023-10-17T00:51:43.813Z,100.00
2023-10-17T00:55:11.569Z,100.00
2023-10-17T00:58:20.005Z,100.00
2023-10-17T01:01:48.084Z,100.00
2023-10-17T01:05:15.804Z,100.00
2023-10-17T01:08:43.593Z,100.00
2023-10-17T01:12:11.314Z,100.00
2023-10-17T01:15:38.971Z,100.00
2023-10-17T01:18:50.872Z,100.00
2023-10-17T01:22:19.714Z,100.00
2023-10-17T01:25:49.223Z,100.00
2023-10-17T01:28:40.053Z,100.00
2023-10-17T01:31:48.747Z,100.00
2023-10-17T01:34:42.301Z,100.00
2023-10-17T01:37:40.200Z,100.00
2023-10-17T01:41:07.836Z,100.00
2023-10-17T01:44:35.522Z,100.00
2023-10-17T01:48:03.271Z,100.00
2023-10-17T01:51:30.920Z,100.00
2023-10-17T01:54:58.657Z,100.00
2023-10-17T01:58:26.389Z,100.00
2023-10-17T02:01:42.418Z,100.00
2023-10-17T02:04:49.006Z,100.00
2023-10-17T02:07:57.788Z,100.00
2023-10-17T02:11:25.529Z,100.00
2023-10-17T02:14:53.264Z,100.00
2023-10-17T02:18:21.050Z,100.00
2023-10-17T02:21:48.895Z,100.00
2023-10-17T02:24:57.455Z,100.00
2023-10-17T02:28:25.441Z,100.00
2023-10-17T02:31:53.366Z,100.00
2023-10-17T02:35:21.186Z,100.00
2023-10-17T02:38:49.388Z,100.00
2023-10-17T02:42:17.110Z,100.00
2023-10-17T02:45:44.800Z,100.00
2023-10-17T02:49:12.585Z,100.00
2023-10-17T02:52:40.232Z,100.00
2023-10-17T02:56:07.920Z,100.00
2023-10-17T02:59:17.313Z,100.00
2023-10-17T03:02:45.040Z,100.00
2023-10-17T03:05:56.780Z,100.00
2023-10-17T03:09:24.747Z,100.00
2023-10-17T03:12:52.063Z,100.00
2023-10-17T03:16:20.110Z,100.00
2023-10-17T03:19:43.941Z,100.00
2023-10-17T03:23:11.996Z,100.00
2023-10-17T03:26:42.950Z,100.00
2023-10-17T03:29:20.921Z,100.00
2023-10-17T03:32:48.585Z,100.00
2023-10-17T03:36:00.165Z,100.00
2023-10-17T03:39:28.055Z,100.00
2023-10-17T03:42:17.260Z,100.00
2023-10-17T03:45:06.888Z,100.00
2023-10-17T03:48:15.734Z,100.00
2023-10-17T03:51:24.594Z,100.00
2023-10-17T03:54:52.290Z,100.00
2023-10-17T03:58:20.319Z,100.00
2023-10-17T04:01:47.993Z,100.00
2023-10-17T04:05:16.005Z,100.00
2023-10-17T04:08:02.062Z,100.00
2023-10-17T04:11:30.070Z,100.00
2023-10-17T04:14:57.731Z,100.00
2023-10-17T04:18:06.464Z,100.00
2023-10-17T04:21:34.086Z,100.00
2023-10-17T04:25:02.778Z,100.00
2023-10-17T04:27:31.410Z,100.00
2023-10-17T04:30:59.208Z,100.00
2023-10-17T04:33:30.355Z,100.00
2023-10-17T04:36:45.675Z,100.00
2023-10-17T04:39:54.605Z,100.00
2023-10-17T04:43:22.413Z,100.00
2023-10-17T04:46:50.491Z,100.00
2023-10-17T04:50:18.199Z,100.00
2023-10-17T04:53:07.510Z,100.00
2023-10-17T04:56:35.179Z,100.00
2023-10-17T05:00:03.003Z,100.00
2023-10-17T05:03:30.845Z,100.00
2023-10-17T05:06:58.384Z,100.00
2023-10-17T05:10:26.345Z,100.00
2023-10-17T05:13:54.005Z,100.00
2023-10-17T05:17:21.922Z,100.00
2023-10-17T05:20:49.583Z,100.00
2023-10-17T05:24:17.487Z,100.00
2023-10-17T05:27:25.776Z,100.00
2023-10-17T05:30:33.966Z,100.00
2023-10-17T05:33:42.039Z,100.00
2023-10-17T05:37:09.663Z,100.00
2023-10-17T05:39:59.328Z,100.00
2023-10-17T05:43:07.467Z,100.00
2023-10-17T05:46:35.163Z,100.00
2023-10-17T05:50:02.908Z,100.00
2023-10-17T05:53:30.776Z,100.00
2023-10-17T05:56:58.565Z,100.00
2023-10-17T06:00:26.415Z,100.00
2023-10-17T06:03:34.709Z,100.00
2023-10-17T06:07:03.568Z,100.00
2023-10-17T06:10:30.204Z,100.00
2023-10-17T06:13:57.931Z,100.00
2023-10-17T06:17:25.762Z,100.00
2023-10-17T06:20:53.922Z,100.00
2023-10-17T06:24:22.001Z,100.00
2023-10-17T06:27:49.846Z,100.00
2023-10-17T06:30:58.684Z,100.00
2023-10-17T06:34:26.308Z,100.00
2023-10-17T06:37:35.745Z,100.00
2023-10-17T06:41:03.566Z,100.00
2023-10-17T06:44:31.411Z,100.00
2023-10-17T06:47:59.165Z,100.00
2023-10-17T06:51:26.979Z,100.00
2023-10-17T06:54:54.571Z,100.00
2023-10-17T06:58:24.804Z,100.00
2023-10-17T07:01:50.306Z,100.00
2023-10-17T07:04:39.584Z,100.00
2023-10-17T07:08:07.258Z,100.00
2023-10-17T07:11:35.020Z,100.00
2023-10-17T07:15:03.233Z,100.00
2023-10-17T07:18:31.090Z,100.00
2023-10-17T07:21:58.746Z,100.00
2023-10-17T07:25:26.348Z,100.00
2023-10-17T07:28:34.638Z,100.00
2023-10-17T07:32:06.888Z,100.00
2023-10-17T07:35:35.979Z,100.00
2023-10-17T07:39:03.687Z,100.00
2023-10-17T07:42:31.636Z,100.00
2023-10-17T07:45:21.589Z,100.00
2023-10-17T07:48:30.445Z,100.00
2023-10-17T07:51:58.364Z,100.00
2023-10-17T07:55:26.315Z,100.00
2023-10-17T07:58:53.992Z,100.00
2023-10-17T08:02:22.017Z,100.00
2023-10-17T08:05:49.644Z,100.00
2023-10-17T08:08:59.554Z,99.92
2023-10-17T08:12:27.380Z,100.00
2023-10-17T08:15:55.457Z,99.78
2023-10-17T08:19:23.341Z,99.82
2023-10-17T08:22:12.452Z,96.48
2023-10-17T08:25:40.169Z,97.64
2023-10-17T08:29:08.049Z,95.60
2023-10-17T08:32:35.969Z,95.72
2023-10-17T08:36:03.759Z,95.09
2023-10-17T08:39:12.659Z,92.89
2023-10-17T08:42:40.826Z,92.86
2023-10-17T08:46:08.548Z,89.93
2023-10-17T08:49:36.501Z,88.29
2023-10-17T08:53:04.312Z,90.31
2023-10-17T08:56:32.029Z,91.93
2023-10-17T08:59:41.085Z,90.92
2023-10-17T09:03:08.991Z,90.10
2023-10-17T09:06:36.928Z,88.92
2023-10-17T09:10:04.741Z,89.71
2023-10-17T09:13:32.590Z,88.06
2023-10-17T09:17:00.235Z,86.32
2023-10-17T09:20:28.095Z,84.77
2023-10-17T09:23:36.798Z,84.86
2023-10-17T09:27:04.659Z,83.77
2023-10-17T09:30:32.440Z,81.70
2023-10-17T09:34:00.271Z,81.54
2023-10-17T09:37:09.714Z,81.48
2023-10-17T09:40:43.345Z,79.48
2023-10-17T09:44:05.299Z,79.90
2023-10-17T09:46:53.723Z,76.76
2023-10-17T09:50:21.623Z,76.98
2023-10-17T09:53:30.181Z,75.56
2023-10-17T09:56:19.847Z,71.86
2023-10-17T09:59:48.009Z,72.22
2023-10-17T10:03:16.188Z,68.87
2023-10-17T10:06:43.833Z,67.20
2023-10-17T10:09:52.688Z,68.15
2023-10-17T10:13:20.590Z,68.15
2023-10-17T10:16:48.563Z,68.49
2023-10-17T10:19:57.519Z,66.31
2023-10-17T10:23:29.246Z,66.75
2023-10-17T10:26:53.085Z,64.04
2023-10-17T10:30:20.835Z,61.48
2023-10-17T10:33:48.812Z,60.14
2023-10-17T10:37:16.901Z,61.50
2023-10-17T10:40:47.013Z,59.13
2023-10-17T10:43:55.343Z,59.11
2023-10-17T10:47:23.356Z,59.94
2023-10-17T10:50:32.348Z,57.85
2023-10-17T10:54:00.307Z,54.74
2023-10-17T10:57:09.184Z,55.47
2023-10-17T11:00:17.940Z,55.68
2023-10-17T11:03:21.215Z,54.76
2023-10-17T11:06:29.985Z,53.27
2023-10-17T11:09:57.644Z,51.11
2023-10-17T11:13:25.391Z,54.58
2023-10-17T11:16:53.841Z,52.04
2023-10-17T11:20:02.771Z,46.94
2023-10-17T11:23:11.599Z,46.81
2023-10-17T11:26:28.299Z,47.04
2023-10-17T11:29:28.999Z,47.41
2023-10-17T11:32:57.170Z,45.40
2023-10-17T11:36:25.429Z,43.49
2023-10-17T11:39:53.758Z,44.80
2023-10-17T11:43:21.579Z,43.87
2023-10-17T11:46:30.766Z,44.18
2023-10-17T11:49:38.878Z,43.62
2023-10-17T11:52:47.713Z,43.88
2023-10-17T11:55:52.149Z,43.21
2023-10-17T11:58:59.847Z,42.82
2023-10-17T12:01:30.262Z,43.02
2023-10-17T12:04:58.455Z,43.04
2023-10-17T12:08:02.277Z,43.12
2023-10-17T12:10:50.631Z,43.48
2023-10-17T12:13:56.049Z,43.58
2023-10-17T12:17:23.791Z,43.49
2023-10-17T12:20:28.093Z,43.21
2023-10-17T12:23:38.037Z,43.28
2023-10-17T12:26:46.331Z,42.77
2023-10-17T12:30:14.089Z,43.25
2023-10-17T12:33:41.835Z,43.62
2023-10-17T12:36:50.005Z,43.58
2023-10-17T12:39:57.801Z,42.65
2023-10-17T12:42:46.582Z,43.36
2023-10-17T12:45:54.746Z,42.04
2023-10-17T12:49:18.034Z,42.76
2023-10-17T12:52:22.354Z,40.98
2023-10-17T12:55:45.505Z,40.95
2023-10-17T12:58:55.340Z,40.28
2023-10-17T13:01:46.296Z,39.63
2023-10-17T13:04:35.852Z,36.95
2023-10-17T13:07:25.259Z,36.65
2023-10-17T13:10:52.922Z,36.13
2023-10-17T13:14:01.920Z,35.85
2023-10-17T13:17:29.952Z,35.29
2023-10-17T13:20:35.813Z,34.68
2023-10-17T13:23:49.606Z,34.42
2023-10-17T13:27:05.920Z,33.45
2023-10-17T13:30:26.151Z,33.23
2023-10-17T13:33:38.337Z,33.37
2023-10-17T13:36:37.389Z,33.48
2023-10-17T13:39:52.713Z,32.80
2023-10-17T13:42:46.253Z,32.31
2023-10-17T13:45:41.760Z,32.24
2023-10-17T13:48:31.128Z,31.88
2023-10-17T13:51:58.890Z,31.57
2023-10-17T13:54:46.330Z,31.38
2023-10-17T13:57:22.801Z,31.84
2023-10-17T14:00:16.436Z,32.23
2023-10-17T14:03:25.822Z,32.53
2023-10-17T14:06:14.853Z,32.89
2023-10-17T14:09:22.970Z,32.96
2023-10-17T14:12:45.919Z,33.84
2023-10-17T14:15:54.790Z,34.42
2023-10-17T14:19:17.584Z,35.40
2023-10-17T14:22:14.714Z,35.73
2023-10-17T14:25:18.637Z,36.23
2023-10-17T14:28:42.043Z,36.03
2023-10-17T14:32:09.941Z,36.12
2023-10-17T14:34:59.765Z,36.23
2023-10-17T14:38:29.360Z,36.67
2023-10-17T14:41:39.413Z,36.21
2023-10-17T14:45:08.257Z,34.62
2023-10-17T14:48:36.502Z,34.73
2023-10-17T14:52:04.501Z,34.97
2023-10-17T14:54:55.792Z,35.78
2023-10-17T14:58:05.436Z,37.27
2023-10-17T15:01:17.113Z,38.41
2023-10-17T15:04:37.175Z,39.91
2023-10-17T15:08:05.350Z,40.26
2023-10-17T15:11:33.361Z,41.10
2023-10-17T15:15:01.460Z,41.73
2023-10-17T15:17:59.318Z,42.00
2023-10-17T15:20:29.044Z,42.16
2023-10-17T15:23:56.796Z,43.10
2023-10-17T15:27:25.167Z,43.66
2023-10-17T15:30:53.052Z,44.13
2023-10-17T15:34:00.901Z,44.91
2023-10-17T15:37:16.805Z,45.58
2023-10-17T15:40:25.697Z,44.99
2023-10-17T15:43:53.387Z,45.14
2023-10-17T15:47:16.683Z,45.24
2023-10-17T15:50:44.373Z,45.49
2023-10-17T15:54:12.216Z,45.97
2023-10-17T15:57:39.882Z,46.40
2023-10-17T16:00:48.688Z,46.97
2023-10-17T16:03:58.005Z,47.34
2023-10-17T16:07:05.945Z,47.61
2023-10-17T16:10:15.754Z,47.90
2023-10-17T16:13:07.504Z,48.43
2023-10-17T16:16:17.601Z,49.09
2023-10-17T16:19:25.552Z,49.90
2023-10-17T16:22:53.718Z,50.04
2023-10-17T16:26:21.442Z,50.30
2023-10-17T16:29:10.422Z,50.47
2023-10-17T16:32:18.283Z,50.75
2023-10-17T16:35:26.613Z,51.09
2023-10-17T16:38:16.754Z,51.91
2023-10-17T16:41:44.667Z,54.03
2023-10-17T16:44:42.048Z,54.69
2023-10-17T16:48:09.638Z,55.22
2023-10-17T16:51:37.574Z,55.77
2023-10-17T16:54:25.648Z,55.48
2023-10-17T16:57:56.711Z,55.33
2023-10-17T17:00:46.311Z,55.48
2023-10-17T17:03:54.901Z,55.65
2023-10-17T17:07:22.709Z,55.48
2023-10-17T17:10:34.524Z,55.41
2023-10-17T17:13:44.340Z,55.67
2023-10-17T17:17:15.852Z,55.87
2023-10-17T17:20:24.568Z,55.45
2023-10-17T17:23:34.551Z,54.94
2023-10-17T17:26:46.032Z,54.70
2023-10-17T17:30:02.013Z,54.76
2023-10-17T17:33:16.118Z,55.19
2023-10-17T17:36:31.475Z,55.38
2023-10-17T17:39:46.711Z,55.28
2023-10-17T17:43:14.316Z,55.15
2023-10-17T17:46:38.093Z,56.67
2023-10-17T17:49:28.589Z,57.32
2023-10-17T17:52:56.028Z,56.90
2023-10-17T17:56:24.125Z,57.64
2023-10-17T17:59:40.163Z,58.36
2023-10-17T18:03:10.612Z,58.39
2023-10-17T18:06:42.471Z,59.03
2023-10-17T18:09:52.342Z,59.59
2023-10-17T18:12:56.356Z,60.14
2023-10-17T18:15:46.150Z,61.01
2023-10-17T18:18:43.108Z,61.95
2023-10-17T18:22:14.103Z,63.27
2023-10-17T18:25:23.057Z,63.06
2023-10-17T18:28:31.984Z,64.18
2023-10-17T18:31:30.948Z,64.13
2023-10-17T18:34:20.598Z,64.76
2023-10-17T18:37:11.536Z,65.54
2023-10-17T18:40:39.393Z,66.92
2023-10-17T18:43:51.387Z,67.81
2023-10-17T18:47:19.162Z,69.72
2023-10-17T18:50:28.000Z,70.83
2023-10-17T18:53:51.709Z,70.59
2023-10-17T18:57:19.593Z,70.23
2023-10-17T19:00:43.355Z,70.28
2023-10-17T19:03:57.746Z,70.28
2023-10-17T19:07:08.829Z,69.92
2023-10-17T19:10:39.275Z,70.18
2023-10-17T19:13:57.171Z,70.07
2023-10-17T19:17:07.373Z,70.84
2023-10-17T19:19:45.984Z,70.83
2023-10-17T19:22:57.634Z,71.05
2023-10-17T19:26:13.216Z,70.91
2023-10-17T19:29:23.164Z,72.58
2023-10-17T19:32:47.197Z,75.79
2023-10-17T19:35:44.318Z,74.19
2023-10-17T19:39:11.999Z,72.53
2023-10-17T19:42:39.955Z,72.17
2023-10-17T19:46:07.731Z,72.20
2023-10-17T19:49:36.054Z,71.77
2023-10-17T19:53:03.903Z,71.64
2023-10-17T19:56:09.781Z,72.37
2023-10-17T19:59:37.520Z,72.54
2023-10-17T20:02:47.667Z,73.67
2023-10-17T20:05:56.301Z,73.27
2023-10-17T20:09:23.942Z,73.53
2023-10-17T20:12:13.386Z,73.86
2023-10-17T20:15:41.115Z,72.93
2023-10-17T20:18:30.972Z,72.24
2023-10-17T20:21:43.420Z,71.98
2023-10-17T20:24:52.124Z,71.73
2023-10-17T20:27:57.042Z,72.68
2023-10-17T20:31:26.413Z,72.98
2023-10-17T20:34:27.100Z,73.69
2023-10-17T20:37:04.197Z,72.20
2023-10-17T20:40:14.656Z,72.84
2023-10-17T20:42:49.227Z,73.65
2023-10-17T20:45:58.857Z,73.61
2023-10-17T20:48:28.466Z,74.13
2023-10-17T20:51:38.493Z,73.53
2023-10-17T20:54:50.176Z,73.10
2023-10-17T20:57:39.565Z,72.46
2023-10-17T21:01:07.270Z,71.63
2023-10-17T21:04:35.207Z,70.58
2023-10-17T21:07:58.750Z,70.73
2023-10-17T21:11:08.582Z,71.35
2023-10-17T21:14:20.891Z,71.54
2023-10-17T21:17:28.502Z,72.39
2023-10-17T21:20:53.585Z,71.82
2023-10-17T21:23:57.833Z,73.98
2023-10-17T21:27:09.383Z,73.93
2023-10-17T21:30:18.076Z,75.23
2023-10-17T21:33:45.905Z,75.24
2023-10-17T21:37:13.588Z,75.30
2023-10-17T21:39:46.819Z,75.52
2023-10-17T21:42:51.763Z,75.79
2023-10-17T21:46:19.499Z,75.63
2023-10-17T21:49:47.309Z,73.96
2023-10-17T21:52:57.202Z,72.25
2023-10-17T21:55:48.085Z,71.55
2023-10-17T21:58:39.115Z,72.20
2023-10-17T22:01:42.412Z,73.64
2023-10-17T22:05:10.186Z,73.73
2023-10-17T22:08:37.945Z,72.85
2023-10-17T22:12:05.591Z,73.51
2023-10-17T22:15:33.321Z,75.07
2023-10-17T22:19:00.966Z,75.86
2023-10-17T22:22:09.715Z,76.65
2023-10-17T22:25:37.429Z,77.42
2023-10-17T22:29:05.586Z,77.43
2023-10-17T22:31:54.957Z,78.54
2023-10-17T22:34:48.594Z,78.13
2023-10-17T22:38:12.171Z,78.58
2023-10-17T22:41:28.469Z,78.78
2023-10-17T22:44:37.362Z,78.70
2023-10-17T22:47:47.151Z,80.14
2023-10-17T22:51:14.894Z,79.79
2023-10-17T22:54:22.038Z,79.90
2023-10-17T22:57:49.870Z,81.00
2023-10-17T23:01:17.796Z,80.43
2023-10-17T23:04:45.552Z,81.82
2023-10-17T23:08:13.367Z,82.93
2023-10-17T23:11:41.246Z,82.58
2023-10-17T23:15:09.253Z,84.64
2023-10-17T23:17:58.089Z,85.72
2023-10-17T23:21:06.192Z,86.76
2023-10-17T23:24:34.124Z,88.13
2023-10-17T23:28:02.094Z,89.33
2023-10-17T23:31:29.970Z,88.82
2023-10-17T23:34:57.754Z,90.77
2023-10-17T23:38:04.457Z,91.91
2023-10-17T23:41:14.084Z,91.99
2023-10-17T23:44:04.958Z,93.31
2023-10-17T23:47:33.727Z,95.72
2023-10-17T23:51:01.504Z,96.11
2023-10-17T23:53:46.417Z,94.16
2023-10-17T23:56:38.976Z,96.00
2023-10-17T23:59:44.392Z,95.80
